Sayville, NY (11782)

11:09 PM EDT en Marzo 31, 2015 (GMT -0400)
KNYSAYVI4 | | Change Station
CLOSE
Current Station
Estación meteorológica personal
Location: Sayville, NY
Altura: 36 ft
Estaciones meteorológicas cercanas
Aviso en curso: Special Statement

Alt 36 ft 40.75 °N, 73.10 °W | Updated 6 seconds ago

Nublado
Nublado
37.4 ° F
Sensación térmica 37 ° F
N
2.0
Viento Variable Viento desde NNE
Gusts 8.0 mph

Hoy
Alta -- | Baja -- ° F
--% Posibilidad de precipitaciones
Ayer
Alta -- | Baja -- ° F
Precip. -- pul
6:37 AM 7:15 PM
Gibosa creciente, 90% visible
Presión 29.77 pul
Visibilidad 9.0 Millas
Nubes Muy nublado 700 ft
Nublado 3500 ft
Vientos helados 37 ° F
Punto de rocío 36 ° F
Humedad 95%
Precipitaciones 0.05 pul
Espesor de la nieve No disponible.
UV 0 de una escala de 12
Polen 7.00 de una escala de 12
Calidad del aire No disponible.
Flu Activity No disponible.
METAR KISP 010256Z 34007KT 9SM BKN007 OVC035 02/01 A2977 RMK AO2 SLP081 60001 T00220006 51003

More Conditions Fewer Conditions

Presión 29.77 pul
Visibilidad 9.0 Millas
Nubes Muy nublado 700 ft
Nublado 3500 ft
Vientos helados 37 ° F
Punto de rocío 36 ° F
Humedad 95%
Precipitaciones 0.05 pul
Espesor de la nieve No disponible.
UV 0 de una escala de 12
Polen 7.00 de una escala de 12
Calidad del aire No disponible.
Flu Activity No disponible.
METAR KISP 010256Z 34007KT 9SM BKN007 OVC035 02/01 A2977 RMK AO2 SLP081 60001 T00220006 51003

More Conditions Fewer Conditions

10-Day Weather Forecast

Almanac

Astronomía

Mar. 31, 2015 Salida Puesta
Hora real
Crepúsculo civil
Crepúsculo náutico
Crepúsculo astronómico
Luna
Horas de luz
Horas de luz
Tomorrow will be .
, % of the Moon is Illuminated

Extremos de hoy

Máximos del estado Bajos del estado

Community

WunderPhotos

Upload Photos

1,809,888 ¡fotos cargadas!

WunderBlogs® & News

Nearby

Calidad del aire

  Calidad del aire Índice AQ Contaminante
Not available.

Grosos de nieve

Estación Profundido Altura

Actividad de terremotos

Ciudad Distance Mag. Tiempo y dato
Magnitud mínima muestra es 2,5.

Temperaturas de aguas costeras

Lugar Temperatura

Stations

Estaciones meteorológicas cercanas

Ubicación de la estación Temp. Vientos helados Punto de rocío Humedad Viento Precip. Alt Actualizado Tipo
                   
Special Statement
Statement as of 10:24 PM EDT en Marzo 31, 2015

Temperatures will fall below freezing overnight. Patchy black ice
is possible on roadways that became wet from from earlier
precipitation. Please exercise caution when traveling tonight
into early Wednesday morning.